Flight Track Log - Related Links

Times and Time Zones

All times are in EDT time to prevent confusion due to time zone crossing. See the EJA396 flight status page for this flight to view local times or setup timezone preferences in your user account.

Time Position Orientation Groundspeed Altitude Reporting Facility
EDT Latitude Longitude Course Direction KTS MPH feet Rate Location/Type
Tue 01:49:57 PM 34.1983 -119.2711 265° West 241 277 30,000  Level Los Angeles Center
Tue 01:50:34 PM 34.1975 -119.3258 269° West 276 318 5,900 -22,258 Descending Los Angeles Center
Tue 01:50:59 PM 34.1967 -119.3644 269° West 258 297 7,000 1,379 Climbing Los Angeles Center
Tue 01:52:01 PM 34.1867 -119.4478 262° West 279 321 7,900 484 Climbing Los Angeles Center
Tue 01:53:03 PM 34.1939 -119.5375 276° West 256 295 8,000 1,210 Climbing Los Angeles Center
Tue 01:54:05 PM 34.1950 -119.6503 271° West 277 319 10,400 2,661 Climbing Los Angeles Center
Tue 01:55:07 PM 34.2194 -119.7508 286° West 310 357 13,500 2,976 Climbing Los Angeles Center
Tue 01:56:10 PM 34.2989 -119.8225 323° Northwest 354 407 16,600 2,928 Climbing Los Angeles Center
Tue 01:57:12 PM 34.3928 -119.8811 333° Northwest 375 432 19,600 2,661 Climbing Los Angeles Center
Tue 01:58:14 PM 34.4897 -119.9394 334° Northwest 385 443 22,100 2,177 Climbing Los Angeles Center
Tue 01:59:16 PM 34.5928 -119.9992 334° Northwest 402 463 24,100 2,129 Climbing Los Angeles Center
Tue 02:00:18 PM 34.7206 -120.0842 331° Northwest 437 503 26,500 1,897 Climbing Los Angeles Center
Tue 02:01:32 PM 34.8231 -120.1539 331° Northwest 446 513 28,400 1,533 Climbing Los Angeles Center
Tue 02:02:35 PM 34.9497 -120.2406 331° Northwest 443 510 30,000 768 Climbing Los Angeles Center
Tue 02:03:37 PM 35.0636 -120.3200 330° Northwest 471 542 30,000  Level Los Angeles Center
Tue 02:04:51 PM 35.2003 -120.4142 331° Northwest 476 548 30,000  Level Los Angeles Center
Tue 02:05:53 PM 35.3372 -120.5089 331° Northwest 475 547 30,000  Level Los Angeles Center
Tue 02:06:55 PM 35.4489 -120.5869 330° Northwest 466 536 30,000  Level Los Angeles Center
Tue 02:07:58 PM 35.5639 -120.6667 331° Northwest 473 544 30,000  Level Los Angeles Center
Tue 02:08:47 PM 35.6742 -120.7436 330° Northwest 471 542 30,000 -600 Level Oakland Center
Tue 02:09:48 PM 35.7869 -120.8228 330° Northwest 463 533 28,900 -1,279 Descending Oakland Center
Tue 02:10:49 PM 35.8928 -120.8978 330° Northwest 433 498 27,400 -1,415 Descending Oakland Center
Tue 02:11:51 PM 36.0025 -120.9753 330° Northwest 450 518 26,000 -683 Descending Oakland Center
Tue 02:12:52 PM 36.1122 -121.0511 331° Northwest 450 518 26,000  Level Oakland Center
Tue 02:13:53 PM 36.2219 -121.1281 331° Northwest 450 518 26,000  Level Oakland Center
Tue 02:14:55 PM 36.3306 -121.2075 329° Northwest 452 520 26,000  Level Oakland Center
Tue 02:15:56 PM 36.4400 -121.2847 330° Northwest 451 519 26,000  Level Oakland Center
Tue 02:16:58 PM 36.5700 -121.3808 329° Northwest 451 519 26,000  Level Oakland Center
Tue 02:17:59 PM 36.6808 -121.4592 330° Northwest 456 525 26,000 -590 Level Oakland Center
Tue 02:19:00 PM 36.7864 -121.5375 329° Northwest 439 505 24,800 -976 Descending Oakland Center
Tue 02:20:02 PM 36.8878 -121.6053 332° Northwest 435 501 24,000 -390 Descending Oakland Center
Tue 02:21:03 PM 36.9947 -121.6728 333° Northwest 429 494 24,000  Level Oakland Center
Tue 02:22:04 PM 37.1122 -121.7225 341° North 434 499 24,000 -146 Level Oakland Center
Tue 02:23:06 PM 37.2233 -121.7792 338° Northwest 429 494 23,700 -1,317 Descending Oakland Center
Tue 02:24:07 PM 37.3358 -121.8772 325° Northwest 410 472 21,300 -2,204 Descending Oakland Center
Tue 02:24:44 PM 37.3833 -121.9333 317° Northwest 387 445 20,100 -2,227 Descending Northern Cal TRACON
Tue 02:25:44 PM 37.4833 -122.0000 332° Northwest 385 443 17,700 -1,867 Descending Northern Cal TRACON
Tue 02:27:44 PM 37.6500 -122.1500 325° Northwest 341 392 14,500 -1,306 Descending Northern Cal TRACON
Tue 02:30:15 PM 37.8253 -122.3422 319° Northwest 356 410 11,800 -1,211 Descending Oakland Center
Tue 02:31:17 PM 37.8961 -122.3978 328° Northwest 320 368 10,200 -2,098 Descending Oakland Center
Tue 02:32:18 PM 37.9872 -122.3706 13° North 288 331 7,500 -2,448 Descending Oakland Center
Tue 02:33:22 PM 38.0611 -122.3536 10° North 276 318 5,100 -2,293 Descending Oakland Center
Tue 02:34:21 PM 38.1328 -122.3433 North 265 305 2,800 -1,785 Descending Oakland Center
Tue 02:35:23 PM 38.1956 -122.3258 12° North 244 281 1,500 -780 Descending Oakland Center
Tue 02:36:24 PM 38.2397 -122.3028 22° Northeast 198 228 1,200 -443 Descending Oakland Center
Tue 02:37:25 PM 38.2519 -122.2717 63° Northeast 156 180 600 -590 Descending Oakland Center

Login

Don't have an account? Register now (free) for customized features, flight alerts, and more!